This is the latest recevied weather packets stored in our database for station/object N7YET. If no packets are shown the sender has not sent any weather packets the latest 1 day(s).
| Time | Temp. | Humidity | Pressure | Rain* | Wind** | Luminosity | Snow |
|---|---|---|---|---|---|---|---|
| 1778033711 | 3.89° C | 50% | 1231.9 hPa | 0 mm | - | - | - |
| 1778032510 | 4.44° C | 47% | 1231.9 hPa | 0 mm | - | - | - |
| 1778031909 | 5° C | 44% | 1231.9 hPa | 0 mm | - | - | - |
| 1778031309 | 5.56° C | 41% | 1231.9 hPa | 0 mm | - | - | - |
| 1778030708 | 6.11° C | 39% | 1231.9 hPa | 0 mm | - | - | - |
| 1778029508 | 6.67° C | 36% | 1231.9 hPa | 0 mm | - | - | - |
| 1778028306 | 7.78° C | 33% | 1231.9 hPa | 0 mm | - | - | - |
| 1778027105 | 8.89° C | 31% | 1231.9 hPa | 0 mm | - | - | - |
| 1778023501 | 10° C | 30% | 1231.9 hPa | 0 mm | - | - | - |
| 1778021699 | 11.11° C | 30% | 1231.9 hPa | 0 mm | - | - | - |
| 1778018095 | 12.22° C | 29% | 1231.9 hPa | 0 mm | - | - | - |
| 1778014491 | 12.78° C | 29% | 1231.9 hPa | 0 mm | - | - | - |
| 1778012689 | 12.78° C | 30% | 1231.9 hPa | 0 mm | - | - | - |
| 1778010887 | 12.78° C | 30% | 1231.9 hPa | 0 mm | - | - | - |
| 1778010287 | 13.33° C | 31% | 1231.9 hPa | 0 mm | - | - | - |
| 1778009686 | 13.33° C | 31% | 1231.9 hPa | 0 mm | - | - | - |
| 1778007884 | 11.67° C | 32% | 1231.9 hPa | 0 mm | - | - | - |
| 1778006683 | 11.11° C | 33% | 1231.9 hPa | 0 mm | - | - | - |
| 1778005482 | 10.56° C | 34% | 1231.9 hPa | 0 mm | - | - | - |
| 1778003680 | 10° C | 37% | 1231.9 hPa | 0 mm | - | - | - |
| 1778001278 | 8.33° C | 39% | 1231.9 hPa | 0 mm | - | - | - |
* Rain latest hour (hover to see other rain measurements)
** Current wind speed in m/s (hover to see current wind gust speed)